Time;durP1;ratioP1;P1;durP2;ratioP2;P2;SDS_P1;SDS_P2;PMS_P1;PMS_P2;Temp;Humidity;BMP_temperature;BMP_pressure;BME280_temperature;BME280_humidity;BME280_pressure;Samples;Min_cycle;Max_cycle;Signal;HPM_P1;HPM_P2
2022/12/11 00:00:20;;;;;;;37.20;16.53;;;3.90;78.00;;;;;;5098403;28;20471;-66
2022/12/11 00:02:46;;;;;;;36.97;15.90;;;3.90;78.00;;;;;;5109374;28;20020;-66
2022/12/11 00:05:11;;;;;;;37.67;16.30;;;3.90;78.10;;;;;;5111311;28;20432;-66
2022/12/11 00:07:37;;;;;;;43.90;17.00;;;3.90;78.10;;;;;;5115192;28;20039;-67
2022/12/11 00:10:03;;;;;;;39.70;16.03;;;3.90;78.20;;;;;;5102768;28;20043;-67
2022/12/11 00:12:30;;;;;;;37.50;16.77;;;3.90;78.20;;;;;;5106025;28;20036;-67
2022/12/11 00:14:56;;;;;;;40.97;17.47;;;4.00;78.30;;;;;;5105362;27;20024;-68
2022/12/11 00:17:22;;;;;;;40.40;17.40;;;4.00;78.30;;;;;;5119242;27;20379;-67
2022/12/11 00:19:47;;;;;;;47.13;17.90;;;3.90;78.20;;;;;;5113611;27;20031;-67
2022/12/11 00:22:13;;;;;;;42.00;17.87;;;4.00;78.30;;;;;;5106914;28;20024;-67
2022/12/11 00:24:38;;;;;;;41.57;17.33;;;4.00;78.30;;;;;;5102570;28;20021;-67
2022/12/11 00:27:04;;;;;;;42.03;15.63;;;4.00;78.40;;;;;;5107221;28;20035;-67
2022/12/11 00:29:30;;;;;;;40.20;17.37;;;3.90;78.40;;;;;;5101378;28;20088;-67
2022/12/11 00:31:55;;;;;;;42.63;17.27;;;4.00;78.40;;;;;;5107977;28;20028;-67
2022/12/11 00:34:21;;;;;;;41.70;15.80;;;4.00;78.40;;;;;;5099175;28;20028;-68
2022/12/11 00:36:47;;;;;;;36.87;15.70;;;4.00;78.50;;;;;;5100100;28;20111;-67
2022/12/11 00:39:12;;;;;;;39.73;15.90;;;4.00;78.40;;;;;;5098559;28;20127;-67
2022/12/11 00:41:38;;;;;;;41.23;15.40;;;4.00;78.50;;;;;;5105392;28;20020;-67
2022/12/11 00:44:04;;;;;;;38.10;15.70;;;4.00;78.50;;;;;;5098793;28;20044;-67
2022/12/11 00:46:29;;;;;;;36.67;17.03;;;4.00;78.40;;;;;;5100604;28;20019;-67
2022/12/11 00:48:55;;;;;;;35.50;15.67;;;4.00;78.40;;;;;;5095895;28;20020;-67
2022/12/11 00:51:21;;;;;;;41.43;16.13;;;4.00;78.40;;;;;;5098089;28;20027;-67
2022/12/11 00:53:46;;;;;;;34.43;14.67;;;4.00;78.50;;;;;;5110144;28;20028;-67
2022/12/11 00:56:15;;;;;;;34.00;15.90;;;4.00;78.50;;;;;;5113812;27;20023;-67
2022/12/11 00:58:41;;;;;;;39.40;16.60;;;4.00;78.50;;;;;;5111068;28;20077;-66
2022/12/11 01:01:10;;;;;;;32.30;14.33;;;4.00;78.50;;;;;;5098129;28;20099;-66
2022/12/11 01:03:36;;;;;;;42.97;17.27;;;4.10;78.60;;;;;;5112271;28;20024;-66
2022/12/11 01:06:02;;;;;;;36.40;15.37;;;4.00;78.60;;;;;;5113626;28;20347;-66
2022/12/11 01:08:28;;;;;;;38.33;16.07;;;4.10;78.60;;;;;;5113359;28;20036;-67
2022/12/11 01:11:05;;;;;;;39.90;18.63;;;4.10;78.60;;;;;;5100401;28;20020;-66
2022/12/11 01:13:31;;;;;;;33.67;15.83;;;4.10;78.60;;;;;;5108858;27;20031;-67
2022/12/11 01:15:57;;;;;;;38.50;16.03;;;4.00;78.50;;;;;;5103737;28;20020;-66
2022/12/11 01:18:23;;;;;;;36.00;16.50;;;4.00;78.60;;;;;;5101832;28;20032;-66
2022/12/11 01:20:48;;;;;;;36.10;15.93;;;4.10;78.60;;;;;;5107394;27;20099;-66
2022/12/11 01:23:14;;;;;;;37.93;16.27;;;4.00;78.60;;;;;;5110394;27;20055;-67
2022/12/11 01:25:41;;;;;;;38.77;14.87;;;4.00;78.60;;;;;;5109561;28;20031;-66
2022/12/11 01:28:07;;;;;;;34.90;16.37;;;4.10;78.70;;;;;;5103023;28;20436;-66
2022/12/11 01:30:32;;;;;;;36.80;15.13;;;4.10;78.70;;;;;;5109303;28;20134;-66
2022/12/11 01:32:59;;;;;;;37.73;15.50;;;4.10;78.60;;;;;;5110186;28;20118;-65
2022/12/11 01:35:26;;;;;;;43.67;17.03;;;4.10;78.60;;;;;;5106100;28;20032;-66
2022/12/11 01:37:51;;;;;;;41.43;16.80;;;4.10;79.30;;;;;;5097388;28;20059;-66
2022/12/11 01:40:19;;;;;;;40.27;15.90;;;4.10;78.70;;;;;;5098215;28;20063;-66
2022/12/11 01:42:45;;;;;;;38.67;15.87;;;4.10;78.70;;;;;;5112851;28;20028;-66
2022/12/11 01:45:28;;;;;;;43.03;16.67;;;4.10;78.70;;;;;;5113640;28;20440;-66
2022/12/11 01:48:11;;;;;;;34.00;14.13;;;4.10;78.70;;;;;;5106851;28;20020;-66
2022/12/11 01:50:49;;;;;;;40.83;16.83;;;4.10;78.70;;;;;;5104571;28;20351;-67
2022/12/11 01:53:20;;;;;;;38.57;14.80;;;4.10;78.70;;;;;;5100299;28;20461;-66
2022/12/11 01:55:47;;;;;;;36.40;13.90;;;4.10;78.70;;;;;;5105990;28;20040;-66
2022/12/11 01:58:14;;;;;;;41.00;15.80;;;4.10;78.70;;;;;;5097279;28;20028;-66
2022/12/11 02:00:40;;;;;;;34.70;14.90;;;4.10;78.70;;;;;;5113296;28;20126;-66
2022/12/11 02:03:06;;;;;;;39.40;16.97;;;4.10;78.80;;;;;;5099292;28;20056;-66
2022/12/11 02:05:32;;;;;;;38.30;14.40;;;4.10;78.80;;;;;;5109215;28;20031;-66
2022/12/11 02:07:59;;;;;;;38.37;15.57;;;4.10;78.80;;;;;;5096123;28;20092;-66
2022/12/11 02:10:56;;;;;;;37.27;15.17;;;4.10;78.90;;;;;;5108255;28;20032;-66
2022/12/11 02:13:34;;;;;;;34.13;14.37;;;4.10;78.90;;;;;;5095598;28;20089;-66
2022/12/11 02:16:13;;;;;;;36.57;15.37;;;4.10;78.90;;;;;;5109163;28;20024;-66
2022/12/11 02:18:48;;;;;;;33.97;14.80;;;4.10;78.90;;;;;;5099550;28;20094;-66
2022/12/11 02:21:22;;;;;;;34.87;14.97;;;4.10;79.00;;;;;;5107903;28;20031;-66
2022/12/11 02:24:03;;;;;;;37.87;15.93;;;4.10;79.00;;;;;;5109511;28;20333;-66
2022/12/11 02:26:39;;;;;;;37.27;16.03;;;4.10;79.10;;;;;;5105796;28;20032;-67
2022/12/11 02:29:09;;;;;;;39.63;15.13;;;4.10;79.00;;;;;;5096805;28;20768;-66
2022/12/11 02:31:43;;;;;;;46.27;15.83;;;4.10;79.00;;;;;;5110992;28;20045;-66
2022/12/11 02:34:21;;;;;;;39.00;16.10;;;4.10;79.10;;;;;;5120868;27;20035;-65
2022/12/11 02:36:55;;;;;;;38.53;15.47;;;4.10;79.20;;;;;;5106767;28;20032;-65
2022/12/11 02:39:24;;;;;;;44.07;16.70;;;4.10;79.20;;;;;;5096062;28;20024;-66
2022/12/11 02:41:50;;;;;;;37.70;15.90;;;4.10;79.20;;;;;;5112153;28;20072;-66
2022/12/11 02:44:24;;;;;;;34.07;15.10;;;4.10;79.20;;;;;;5113558;28;20470;-66
2022/12/11 02:46:50;;;;;;;41.03;15.83;;;4.10;79.20;;;;;;5104928;28;20330;-66
2022/12/11 02:49:18;;;;;;;40.63;16.43;;;4.10;79.20;;;;;;5105716;28;20097;-66
2022/12/11 02:51:44;;;;;;;37.57;15.17;;;4.10;79.20;;;;;;5105424;28;20086;-66
2022/12/11 02:54:20;;;;;;;36.20;14.63;;;4.10;79.20;;;;;;5103350;28;20036;-66
2022/12/11 02:56:53;;;;;;;40.83;14.90;;;4.10;79.40;;;;;;5110668;28;20016;-66
2022/12/11 02:59:25;;;;;;;34.80;15.73;;;4.00;79.30;;;;;;5110059;28;20027;-66
2022/12/11 03:01:51;;;;;;;40.17;16.07;;;4.10;79.40;;;;;;5106687;28;20016;-66
2022/12/11 03:04:17;;;;;;;35.20;15.03;;;4.10;79.40;;;;;;5098788;28;20039;-66
2022/12/11 03:06:48;;;;;;;36.57;16.37;;;4.10;79.40;;;;;;5106120;28;20051;-66
2022/12/11 03:09:14;;;;;;;39.87;17.13;;;4.10;79.50;;;;;;5093477;28;20360;-66
2022/12/11 03:11:39;;;;;;;37.37;14.73;;;4.10;79.40;;;;;;5106827;28;20356;-66
2022/12/11 03:14:06;;;;;;;42.27;16.50;;;4.10;79.50;;;;;;5094322;28;20028;-66
2022/12/11 03:16:44;;;;;;;39.63;16.47;;;4.10;79.40;;;;;;5104727;28;20027;-66
2022/12/11 03:19:26;;;;;;;42.57;17.23;;;4.10;79.40;;;;;;5094235;28;20115;-66
2022/12/11 03:22:29;;;;;;;36.83;15.37;;;4.10;79.50;;;;;;5108978;28;20390;-66
2022/12/11 03:25:01;;;;;;;40.17;16.37;;;4.10;79.50;;;;;;5106058;28;20089;-66
2022/12/11 03:27:40;;;;;;;38.50;16.57;;;4.10;79.50;;;;;;5106647;28;20424;-66
2022/12/11 03:30:11;;;;;;;38.00;15.63;;;4.10;79.60;;;;;;5097754;28;20027;-66
2022/12/11 03:32:55;;;;;;;39.35;14.40;;;4.10;79.60;;;;;;5108572;28;20032;-66
2022/12/11 03:35:32;;;;;;;36.40;15.80;;;4.10;79.60;;;;;;5103004;28;20047;-66
2022/12/11 03:38:05;;;;;;;38.03;15.97;;;4.10;79.50;;;;;;5105054;28;20058;-66
2022/12/11 03:40:32;;;;;;;42.27;16.63;;;4.10;79.60;;;;;;5109368;27;20031;-66
2022/12/11 03:42:59;;;;;;;40.53;17.80;;;4.20;79.60;;;;;;5105960;28;20020;-66
2022/12/11 03:45:27;;;;;;;38.20;16.13;;;4.20;79.60;;;;;;5093001;28;20036;-66
2022/12/11 03:47:56;;;;;;;40.47;19.20;;;4.20;79.60;;;;;;5105453;28;20020;-66
2022/12/11 03:50:24;;;;;;;41.00;16.80;;;4.20;79.60;;;;;;5100954;28;20128;-66
2022/12/11 03:52:52;;;;;;;36.20;16.30;;;4.20;79.60;;;;;;5093143;28;20028;-66
2022/12/11 03:55:21;;;;;;;36.87;15.63;;;4.20;79.60;;;;;;5096151;28;20024;-66
2022/12/11 03:57:47;;;;;;;44.23;17.57;;;4.20;79.60;;;;;;5108070;28;20023;-66
2022/12/11 04:00:17;;;;;;;44.23;16.70;;;4.20;79.60;;;;;;5099429;28;20036;-66
2022/12/11 04:02:44;;;;;;;47.23;17.13;;;4.20;79.60;;;;;;5114918;28;20023;-66
2022/12/11 04:05:10;;;;;;;43.93;19.07;;;4.20;79.60;;;;;;5094757;28;20024;-66
2022/12/11 04:07:36;;;;;;;39.83;17.57;;;4.20;79.60;;;;;;5099746;28;20099;-66
2022/12/11 04:10:04;;;;;;;40.30;16.87;;;4.20;79.50;;;;;;5109175;28;20024;-66
2022/12/11 04:12:29;;;;;;;47.20;18.00;;;4.20;79.50;;;;;;5109852;28;20114;-66
2022/12/11 04:15:01;;;;;;;45.13;18.67;;;4.20;80.10;;;;;;5105197;28;20082;-66
2022/12/11 04:25:48;;;;;;;40.93;18.23;;;4.30;79.50;;;;;;5099299;28;20070;-67
2022/12/11 04:28:14;;;;;;;41.53;17.90;;;4.30;79.50;;;;;;5099513;28;20047;-66
2022/12/11 04:30:39;;;;;;;40.03;17.93;;;4.30;79.50;;;;;;5105439;28;20015;-66
2022/12/11 04:33:06;;;;;;;40.77;18.57;;;4.30;79.50;;;;;;5098996;28;20051;-66
2022/12/11 04:35:31;;;;;;;39.80;17.67;;;4.30;79.50;;;;;;5100316;28;20036;-66
2022/12/11 04:37:57;;;;;;;42.50;17.77;;;4.30;79.50;;;;;;5095247;28;20030;-66
2022/12/11 04:40:23;;;;;;;43.33;19.63;;;4.30;79.50;;;;;;5107921;28;20032;-66
2022/12/11 04:42:49;;;;;;;43.53;19.17;;;4.30;79.40;;;;;;5095619;28;20027;-66
2022/12/11 04:45:15;;;;;;;43.80;19.80;;;4.30;79.40;;;;;;5102609;28;20032;-66
2022/12/11 04:47:40;;;;;;;42.33;18.70;;;4.30;79.40;;;;;;5101132;28;20019;-66
2022/12/11 04:50:08;;;;;;;36.43;17.07;;;4.30;79.40;;;;;;5105058;28;20118;-66
2022/12/11 04:52:34;;;;;;;42.63;20.47;;;4.30;79.30;;;;;;5098983;28;20032;-66
2022/12/11 04:55:00;;;;;;;43.57;19.33;;;4.30;79.40;;;;;;5104831;28;20354;-66
2022/12/11 04:57:25;;;;;;;38.60;17.73;;;4.30;79.30;;;;;;5096564;28;20393;-66
2022/12/11 04:59:51;;;;;;;40.40;19.63;;;4.30;79.30;;;;;;5111462;27;20464;-66
2022/12/11 05:02:16;;;;;;;42.80;19.07;;;4.30;79.30;;;;;;5105364;28;20024;-66
2022/12/11 05:04:43;;;;;;;43.97;18.47;;;4.30;79.20;;;;;;5108909;28;20027;-66
2022/12/11 05:07:08;;;;;;;41.77;18.33;;;4.30;79.20;;;;;;5096689;28;20035;-66
2022/12/11 05:09:35;;;;;;;39.73;17.67;;;4.30;79.20;;;;;;5103873;28;20032;-66
2022/12/11 05:12:01;;;;;;;44.17;19.47;;;4.40;79.30;;;;;;5111735;28;20531;-66
2022/12/11 05:14:30;;;;;;;43.83;18.97;;;4.40;79.30;;;;;;5109892;28;20114;-66
2022/12/11 05:16:57;;;;;;;40.33;18.40;;;4.40;79.20;;;;;;5106313;28;20040;-66
2022/12/11 05:19:22;;;;;;;44.77;19.53;;;4.40;79.30;;;;;;5107908;28;20024;-66
2022/12/11 05:21:48;;;;;;;41.30;19.60;;;4.40;79.30;;;;;;5110981;28;20065;-66
2022/12/11 05:24:14;;;;;;;40.00;18.37;;;4.40;79.20;;;;;;5103706;28;20060;-66
2022/12/11 05:26:39;;;;;;;41.57;18.67;;;4.40;79.10;;;;;;5103215;28;20070;-66
2022/12/11 05:29:05;;;;;;;39.60;17.33;;;4.40;79.20;;;;;;5109380;28;20106;-66
2022/12/11 05:31:31;;;;;;;35.77;16.77;;;4.40;79.10;;;;;;5107272;28;20028;-66
2022/12/11 05:33:56;;;;;;;36.77;17.80;;;4.40;79.00;;;;;;5100433;28;20046;-66
2022/12/11 05:36:28;;;;;;;36.03;17.13;;;4.40;79.00;;;;;;5105837;28;20032;-66
2022/12/11 05:38:54;;;;;;;35.60;18.30;;;4.40;78.90;;;;;;5102802;28;20512;-66
2022/12/11 05:41:22;;;;;;;36.53;18.77;;;4.40;78.80;;;;;;5107790;28;20024;-66
2022/12/11 05:43:48;;;;;;;33.63;16.47;;;4.40;78.80;;;;;;5096048;28;20020;-66
2022/12/11 05:46:19;;;;;;;39.20;18.17;;;4.40;78.80;;;;;;5105573;28;20027;-66
2022/12/11 05:48:46;;;;;;;37.85;19.30;;;4.40;78.90;;;;;;5108362;28;20063;-66
2022/12/11 05:51:14;;;;;;;35.30;17.63;;;4.40;78.90;;;;;;5111736;28;20036;-66
2022/12/11 05:53:40;;;;;;;36.43;18.20;;;4.40;78.80;;;;;;5095855;28;20024;-66
2022/12/11 05:56:12;;;;;;;34.10;16.70;;;4.40;78.80;;;;;;5105435;28;20024;-66
2022/12/11 05:58:38;;;;;;;35.87;16.50;;;4.40;78.70;;;;;;5109014;28;20051;-66
2022/12/11 06:01:10;;;;;;;34.37;16.80;;;4.40;78.70;;;;;;5110393;28;20045;-66
2022/12/11 06:03:36;;;;;;;37.88;18.17;;;4.40;78.70;;;;;;5095459;28;20023;-66
2022/12/11 06:06:03;;;;;;;36.90;17.90;;;4.40;78.70;;;;;;5114455;27;20029;-66
2022/12/11 06:08:29;;;;;;;36.07;17.77;;;4.40;78.70;;;;;;5110056;28;20032;-66
2022/12/11 06:10:55;;;;;;;36.73;18.43;;;4.40;78.70;;;;;;5113749;28;20107;-66
2022/12/11 06:13:20;;;;;;;37.53;18.10;;;4.40;78.70;;;;;;5111846;28;20059;-66
2022/12/11 06:15:46;;;;;;;37.67;17.37;;;4.40;78.70;;;;;;5107453;28;21275;-66
2022/12/11 06:18:11;;;;;;;35.17;17.10;;;4.40;78.70;;;;;;5112895;28;20065;-66
2022/12/11 06:20:37;;;;;;;34.10;18.27;;;4.40;78.60;;;;;;5108798;28;20338;-66
2022/12/11 06:23:03;;;;;;;36.23;17.77;;;4.40;78.60;;;;;;5102302;28;20333;-66
2022/12/11 06:25:30;;;;;;;31.60;16.43;;;4.40;78.40;;;;;;5097654;28;20028;-66
2022/12/11 06:27:56;;;;;;;31.83;16.53;;;4.30;78.40;;;;;;5111388;28;20026;-66
2022/12/11 06:30:22;;;;;;;31.93;16.30;;;4.30;78.30;;;;;;5112092;28;20028;-66
2022/12/11 06:32:48;;;;;;;34.53;17.83;;;4.30;78.30;;;;;;5113755;28;20028;-67
2022/12/11 06:35:13;;;;;;;32.90;16.97;;;4.40;78.40;;;;;;5097158;28;20226;-66
2022/12/11 06:37:39;;;;;;;31.20;16.60;;;4.40;78.40;;;;;;5111218;28;20051;-66
2022/12/11 06:40:07;;;;;;;37.80;18.97;;;4.40;78.40;;;;;;5107119;28;20107;-66
2022/12/11 06:42:33;;;;;;;30.13;14.80;;;4.40;78.30;;;;;;5109374;28;20047;-66
2022/12/11 06:44:59;;;;;;;30.80;17.43;;;4.40;78.40;;;;;;5112903;28;20432;-66
2022/12/11 06:47:26;;;;;;;30.07;15.40;;;4.40;78.30;;;;;;5109700;28;20023;-66
2022/12/11 06:49:52;;;;;;;31.47;16.73;;;4.40;78.30;;;;;;5106927;28;20329;-66
2022/12/11 06:52:19;;;;;;;32.27;14.77;;;4.40;78.30;;;;;;5113777;28;20039;-65
2022/12/11 06:54:45;;;;;;;28.87;14.77;;;4.40;78.30;;;;;;5095487;28;20359;-65
2022/12/11 06:57:10;;;;;;;28.03;14.43;;;4.40;78.20;;;;;;5113650;28;20031;-66
2022/12/11 06:59:36;;;;;;;28.13;14.73;;;4.30;78.10;;;;;;5092593;28;20476;-66
2022/12/11 07:02:03;;;;;;;30.10;14.40;;;4.40;78.10;;;;;;5094614;28;20398;-66
2022/12/11 07:04:29;;;;;;;27.73;15.07;;;4.40;78.10;;;;;;5098651;28;20106;-66
2022/12/11 07:06:56;;;;;;;28.23;14.20;;;4.40;78.00;;;;;;5093451;28;20484;-66
2022/12/11 07:09:22;;;;;;;29.67;15.63;;;4.30;77.90;;;;;;5096588;28;20024;-66
2022/12/11 07:11:49;;;;;;;28.13;15.43;;;4.40;78.00;;;;;;5100645;28;20069;-66
2022/12/11 07:14:15;;;;;;;27.83;13.57;;;4.40;77.90;;;;;;5103442;28;20066;-66
2022/12/11 07:16:41;;;;;;;27.90;14.40;;;4.40;77.90;;;;;;5093992;28;20028;-66
2022/12/11 07:19:06;;;;;;;25.50;13.70;;;4.40;78.50;;;;;;5099353;28;20035;-66
2022/12/11 07:21:32;;;;;;;27.20;14.13;;;4.30;77.70;;;;;;5111487;28;20023;-66
2022/12/11 07:23:58;;;;;;;26.37;13.80;;;4.30;77.70;;;;;;5108181;28;20034;-66
2022/12/11 07:26:23;;;;;;;25.93;13.37;;;4.40;77.80;;;;;;5094828;28;20048;-66
2022/12/11 07:28:49;;;;;;;28.10;13.73;;;4.30;77.70;;;;;;5104742;28;20031;-66
2022/12/11 07:31:20;;;;;;;24.57;13.73;;;4.30;77.70;;;;;;5109910;27;20403;-66
2022/12/11 07:33:46;;;;;;;26.48;14.40;;;4.30;77.70;;;;;;5101572;28;20036;-66
2022/12/11 07:36:14;;;;;;;24.37;13.57;;;4.20;77.70;;;;;;5095993;28;20068;-66
2022/12/11 07:38:40;;;;;;;22.80;12.67;;;4.30;77.70;;;;;;5104841;28;20023;-66
2022/12/11 07:41:09;;;;;;;22.57;12.70;;;4.20;77.60;;;;;;5107569;28;20020;-64
2022/12/11 07:43:35;;;;;;;23.13;12.30;;;4.30;77.60;;;;;;5107815;28;20027;-65
2022/12/11 07:46:07;;;;;;;25.93;13.20;;;4.30;77.50;;;;;;5106544;28;20032;-65
2022/12/11 07:48:37;;;;;;;24.17;13.05;;;4.30;77.40;;;;;;5106297;28;20032;-65
2022/12/11 07:51:21;;;;;;;23.97;12.27;;;4.30;77.20;;;;;;5109579;28;20016;-64
2022/12/11 07:53:49;;;;;;;24.10;12.87;;;4.30;77.20;;;;;;5103696;28;20103;-65
2022/12/11 07:56:16;;;;;;;25.43;12.37;;;4.40;77.20;;;;;;5097776;28;20043;-65
2022/12/11 07:58:41;;;;;;;24.00;12.77;;;4.30;77.10;;;;;;5105115;28;20027;-64
2022/12/11 08:01:16;;;;;;;24.53;12.43;;;4.30;77.00;;;;;;5104104;28;20068;-64
2022/12/11 08:03:42;;;;;;;20.73;10.83;;;4.30;77.00;;;;;;5106908;28;20020;-65
2022/12/11 08:06:08;;;;;;;22.30;11.80;;;4.30;77.00;;;;;;5112972;28;20036;-65
2022/12/11 08:08:34;;;;;;;23.77;12.23;;;4.30;76.90;;;;;;5103849;28;20353;-66
2022/12/11 08:11:08;;;;;;;21.60;11.17;;;4.30;76.90;;;;;;5105884;28;20030;-65
2022/12/11 08:13:34;;;;;;;21.63;12.70;;;4.30;76.90;;;;;;5097692;28;20150;-65
2022/12/11 08:16:07;;;;;;;21.40;11.03;;;4.40;76.90;;;;;;5123073;28;20126;-64
2022/12/11 08:18:34;;;;;;;19.90;11.30;;;4.40;76.80;;;;;;5110615;28;20036;-65
2022/12/11 08:21:14;;;;;;;19.97;11.07;;;4.30;76.70;;;;;;5097981;28;20479;-64
2022/12/11 08:23:41;;;;;;;19.73;11.23;;;4.40;76.70;;;;;;5103067;28;20069;-65
2022/12/11 08:26:08;;;;;;;19.67;10.40;;;4.30;76.60;;;;;;5115562;28;20031;-65
2022/12/11 08:28:34;;;;;;;21.33;9.70;;;4.30;76.50;;;;;;5115261;27;20027;-64
2022/12/11 08:31:07;;;;;;;18.83;9.83;;;4.40;76.50;;;;;;5110663;28;20020;-65
2022/12/11 08:33:33;;;;;;;21.27;9.57;;;4.30;76.40;;;;;;5111768;28;20028;-65
2022/12/11 08:36:06;;;;;;;21.20;11.50;;;4.40;76.50;;;;;;5103902;28;20088;-64
2022/12/11 08:38:33;;;;;;;19.03;10.37;;;4.40;76.40;;;;;;5113300;28;20043;-65
2022/12/11 08:40:58;;;;;;;23.63;11.83;;;4.40;76.40;;;;;;5103264;28;20039;-65
2022/12/11 08:43:24;;;;;;;20.27;11.63;;;4.40;76.30;;;;;;5115669;27;20066;-66
2022/12/11 08:45:50;;;;;;;20.03;9.83;;;4.40;76.30;;;;;;5095094;28;20035;-65
2022/12/11 08:48:16;;;;;;;21.40;10.57;;;4.40;76.30;;;;;;5115784;28;20026;-66
2022/12/11 08:50:41;;;;;;;19.13;11.10;;;4.40;76.30;;;;;;5106943;28;20119;-66
2022/12/11 08:53:07;;;;;;;18.30;9.70;;;4.40;76.30;;;;;;5115502;28;20035;-66
2022/12/11 08:55:33;;;;;;;19.43;10.73;;;4.40;76.30;;;;;;5114358;27;20089;-66
2022/12/11 08:57:59;;;;;;;20.37;10.07;;;4.40;76.20;;;;;;5115775;28;20042;-66
2022/12/11 09:00:26;;;;;;;18.20;10.47;;;4.40;76.20;;;;;;5111667;28;20030;-66
2022/12/11 09:02:52;;;;;;;18.03;10.33;;;4.40;76.10;;;;;;5106709;28;20024;-67
2022/12/11 09:05:17;;;;;;;16.83;9.67;;;4.40;76.10;;;;;;5095917;28;20023;-66
2022/12/11 09:07:43;;;;;;;18.93;9.70;;;4.40;76.00;;;;;;5106931;28;20430;-66
2022/12/11 09:10:09;;;;;;;19.27;9.70;;;4.40;76.00;;;;;;5105431;28;20091;-66
2022/12/11 09:12:35;;;;;;;19.93;9.93;;;4.40;75.80;;;;;;5110179;28;20139;-66
2022/12/11 09:15:01;;;;;;;18.13;9.83;;;4.40;75.80;;;;;;5108010;28;20063;-66
2022/12/11 09:17:27;;;;;;;20.73;10.07;;;4.40;75.70;;;;;;5110451;28;20453;-66
2022/12/11 09:19:53;;;;;;;16.83;9.47;;;4.40;75.70;;;;;;5104294;28;20123;-66
2022/12/11 09:22:18;;;;;;;19.53;9.90;;;4.50;75.60;;;;;;5111199;28;20114;-66
2022/12/11 09:24:45;;;;;;;19.80;10.27;;;4.50;75.50;;;;;;5104408;28;20023;-66
2022/12/11 09:27:10;;;;;;;22.40;10.87;;;4.50;75.40;;;;;;5112237;27;20040;-66
2022/12/11 09:29:37;;;;;;;19.63;11.67;;;4.50;75.40;;;;;;5104709;28;20055;-66
2022/12/11 09:32:03;;;;;;;20.97;11.13;;;4.50;75.40;;;;;;5111361;28;20035;-66
2022/12/11 09:34:29;;;;;;;20.30;11.03;;;4.50;75.40;;;;;;5102562;28;20027;-66
2022/12/11 09:36:54;;;;;;;21.57;11.00;;;4.50;75.40;;;;;;5111905;28;20024;-66
2022/12/11 09:39:20;;;;;;;20.17;11.10;;;4.50;76.00;;;;;;5113191;27;20043;-66
2022/12/11 09:42:01;;;;;;;20.07;11.50;;;4.60;75.40;;;;;;5107325;28;20085;-67
2022/12/11 09:44:44;;;;;;;21.13;11.77;;;4.60;75.40;;;;;;5113972;28;20029;-66
2022/12/11 09:47:22;;;;;;;20.20;11.10;;;4.50;75.30;;;;;;5110535;27;20034;-66
2022/12/11 09:49:52;;;;;;;20.73;11.27;;;4.50;75.20;;;;;;5102029;28;20115;-67
2022/12/11 09:52:25;;;;;;;19.50;10.80;;;4.50;75.20;;;;;;5112244;28;20486;-66
2022/12/11 09:54:59;;;;;;;20.87;10.67;;;4.60;75.30;;;;;;5107035;28;20061;-66
2022/12/11 09:57:40;;;;;;;22.17;9.97;;;4.50;75.20;;;;;;5111835;28;20039;-65
2022/12/11 10:00:17;;;;;;;21.63;10.32;;;4.60;75.20;;;;;;5099672;28;20032;-66
2022/12/11 10:02:49;;;;;;;20.00;10.50;;;4.60;75.20;;;;;;5106717;28;20569;-66
2022/12/11 10:05:14;;;;;;;;;;;4.60;75.20;;;;;;5107674;28;20030;-66
2022/12/11 10:07:59;;;;;;;17.13;9.53;;;4.60;75.10;;;;;;5111132;28;19916;-66
2022/12/11 10:10:56;;;;;;;18.67;10.40;;;4.60;75.10;;;;;;5095168;28;20039;-66
2022/12/11 10:13:44;;;;;;;21.40;10.43;;;4.60;75.00;;;;;;5106777;28;20035;-66
2022/12/11 10:16:21;;;;;;;21.70;10.97;;;4.60;75.00;;;;;;5096679;28;20046;-66
2022/12/11 10:18:47;;;;;;;21.10;12.20;;;4.60;74.90;;;;;;5114486;27;20066;-66
2022/12/11 10:21:16;;;;;;;22.50;11.53;;;4.60;74.90;;;;;;5109763;28;20421;-66
2022/12/11 10:23:55;;;;;;;19.37;10.37;;;4.70;75.00;;;;;;5103869;28;20067;-66
2022/12/11 10:26:22;;;;;;;19.90;10.27;;;4.70;74.90;;;;;;5108114;28;20027;-66
2022/12/11 10:28:48;;;;;;;23.73;11.17;;;4.70;74.80;;;;;;5110948;28;20060;-66
2022/12/11 10:31:24;;;;;;;19.37;10.10;;;4.70;74.60;;;;;;5104095;28;20064;-66
2022/12/11 10:33:59;;;;;;;19.03;10.17;;;4.70;74.50;;;;;;5109421;28;20024;-66
2022/12/11 10:36:37;;;;;;;17.73;9.43;;;4.70;74.40;;;;;;5105055;28;20334;-66
2022/12/11 10:39:11;;;;;;;21.67;11.13;;;4.70;74.40;;;;;;5107779;28;20032;-66
2022/12/11 10:41:38;;;;;;;20.60;11.80;;;4.80;74.30;;;;;;5095378;28;20024;-66
2022/12/11 10:44:17;;;;;;;18.13;10.10;;;4.80;74.20;;;;;;5106416;28;20393;-66
2022/12/11 10:46:44;;;;;;;19.00;10.33;;;4.80;74.10;;;;;;5094997;28;20103;-66
2022/12/11 10:49:22;;;;;;;20.53;10.93;;;4.80;74.20;;;;;;5113217;27;20085;-66
2022/12/11 10:51:47;;;;;;;20.43;10.77;;;4.80;74.10;;;;;;5099858;28;20067;-66
2022/12/11 10:54:37;;;;;;;17.00;10.13;;;4.80;74.00;;;;;;5113540;28;20047;-66
2022/12/11 10:57:04;;;;;;;20.03;11.23;;;4.80;74.00;;;;;;5095151;28;20492;-66
2022/12/11 10:59:29;;;;;;;19.47;10.67;;;4.80;74.10;;;;;;5103446;28;20053;-66
2022/12/11 11:01:56;;;;;;;21.20;10.77;;;4.80;74.00;;;;;;5103540;27;20023;-66
2022/12/11 11:04:35;;;;;;;19.30;10.53;;;4.80;74.00;;;;;;5117427;27;20035;-66
2022/12/11 11:07:19;;;;;;;21.77;11.67;;;4.80;74.00;;;;;;5110514;28;20350;-65
2022/12/11 11:09:45;;;;;;;20.47;11.60;;;4.80;73.90;;;;;;5104340;28;20028;-65
2022/12/11 11:12:23;;;;;;;24.33;13.80;;;4.80;74.00;;;;;;5098163;28;20041;-65
2022/12/11 11:15:15;;;;;;;24.37;13.03;;;4.80;74.00;;;;;;5115154;27;20077;-65
2022/12/11 11:17:47;;;;;;;22.02;12.20;;;4.80;74.00;;;;;;5104512;28;20180;-65
2022/12/11 11:20:16;;;;;;;21.77;12.33;;;4.80;74.00;;;;;;5107967;28;20031;-65
2022/12/11 11:22:46;;;;;;;23.42;12.43;;;4.80;74.60;;;;;;5111387;27;20041;-66
2022/12/11 11:25:21;;;;;;;20.40;11.60;;;4.80;73.90;;;;;;5108971;28;20043;-66
2022/12/11 11:28:06;;;;;;;22.87;12.80;;;4.80;73.90;;;;;;5103403;28;21325;-65
2022/12/11 11:30:40;;;;;;;21.87;12.80;;;4.80;73.90;;;;;;5112487;28;20436;-65
2022/12/11 11:33:19;;;;;;;23.73;12.53;;;4.90;74.50;;;;;;5107930;28;20059;-65
2022/12/11 11:35:58;;;;;;;21.07;12.73;;;4.90;73.80;;;;;;5111676;28;20027;-65
2022/12/11 11:38:46;;;;;;;22.50;12.43;;;4.90;73.70;;;;;;5104034;28;20028;-65
2022/12/11 11:41:15;;;;;;;19.53;12.00;;;4.90;73.70;;;;;;5110617;28;20353;-65
2022/12/11 11:43:50;;;;;;;22.43;12.33;;;4.90;73.70;;;;;;5109986;28;20020;-65
2022/12/11 11:46:24;;;;;;;21.63;13.53;;;4.80;73.70;;;;;;5110704;28;20078;-65
2022/12/11 11:49:05;;;;;;;20.77;12.93;;;4.80;73.70;;;;;;5100703;28;20020;-65
2022/12/11 11:51:38;;;;;;;23.40;13.52;;;4.80;73.70;;;;;;5117758;28;20099;-65
2022/12/11 11:54:32;;;;;;;19.20;12.37;;;4.90;73.70;;;;;;5110418;28;20055;-65
2022/12/11 11:57:00;;;;;;;20.40;12.33;;;4.90;73.60;;;;;;5100628;28;20098;-64
2022/12/11 11:59:41;;;;;;;24.47;13.87;;;4.90;73.70;;;;;;5107161;28;20454;-65
2022/12/11 12:02:15;;;;;;;21.40;12.35;;;4.90;73.70;;;;;;5108489;28;20032;-65
2022/12/11 12:04:41;;;;;;;21.33;12.43;;;4.90;73.70;;;;;;5105821;27;20339;-65
2022/12/11 12:07:29;;;;;;;22.67;12.30;;;4.90;73.70;;;;;;5112663;27;20340;-65
2022/12/11 12:10:16;;;;;;;24.50;13.37;;;4.90;73.60;;;;;;5109486;28;20073;-65
2022/12/11 12:13:09;;;;;;;23.67;12.37;;;4.90;73.60;;;;;;5105437;28;20061;-65
2022/12/11 12:15:56;;;;;;;22.17;12.60;;;4.90;73.50;;;;;;5103717;28;20077;-65
2022/12/11 12:18:54;;;;;;;20.60;12.73;;;4.80;73.50;;;;;;5115252;28;20413;-65
2022/12/11 12:21:36;;;;;;;21.03;12.73;;;4.90;73.40;;;;;;5052331;28;20053;-65
2022/12/11 12:24:28;;;;;;;20.00;10.88;;;4.80;73.50;;;;;;5049490;28;20021;-65
2022/12/11 12:26:54;;;;;;;24.37;12.07;;;4.80;73.50;;;;;;5047567;28;20049;-65
2022/12/11 12:29:52;;;;;;;20.20;11.67;;;4.80;73.50;;;;;;5050605;28;20109;-65
2022/12/11 12:32:18;;;;;;;21.43;11.87;;;4.90;73.60;;;;;;5046144;28;20049;-65
2022/12/11 12:35:14;;;;;;;22.50;10.77;;;4.80;73.60;;;;;;5047544;28;20063;-65
2022/12/11 12:38:01;;;;;;;24.13;11.90;;;4.90;73.60;;;;;;5060472;28;20032;-65
2022/12/11 12:40:50;;;;;;;22.23;12.00;;;4.90;73.50;;;;;;5048834;28;20033;-65
2022/12/11 12:43:43;;;;;;;25.43;11.27;;;4.90;73.60;;;;;;5040554;28;20034;-65
2022/12/11 12:46:19;;;;;;;21.77;10.77;;;4.90;73.60;;;;;;5051813;28;20550;-65
2022/12/11 12:48:45;;;;;;;20.87;11.47;;;4.80;73.60;;;;;;5037791;28;20032;-65
2022/12/11 12:51:15;;;;;;;20.97;11.47;;;4.80;73.70;;;;;;5053049;28;20095;-65
2022/12/11 12:53:51;;;;;;;20.13;10.93;;;4.90;73.70;;;;;;5039190;28;20033;-66
2022/12/11 12:56:19;;;;;;;20.30;11.80;;;4.90;73.70;;;;;;5051954;28;20040;-65
2022/12/11 12:58:45;;;;;;;21.57;11.90;;;4.90;73.70;;;;;;5091284;28;20101;-65
2022/12/11 13:01:19;;;;;;;19.23;11.20;;;4.90;73.70;;;;;;5122745;27;20102;-65